createdAt,value
2023-03-21T00:00:31.093Z,68.30
2023-03-21T00:01:33.664Z,60.85
2023-03-21T00:02:36.245Z,63.66
2023-03-21T00:03:38.876Z,67.16
2023-03-21T00:04:51.311Z,61.68
2023-03-21T00:05:46.040Z,70.73
2023-03-21T00:06:48.995Z,72.16
2023-03-21T00:07:51.514Z,71.21
2023-03-21T00:08:54.062Z,76.13
2023-03-21T00:10:04.815Z,70.27
2023-03-21T00:11:01.330Z,75.72
2023-03-21T00:12:03.892Z,76.29
2023-03-21T00:13:06.359Z,66.02
2023-03-21T00:14:09.082Z,67.03
2023-03-21T00:15:11.777Z,63.85
2023-03-21T00:16:21.202Z,67.13
2023-03-21T00:17:18.994Z,76.72
2023-03-21T00:18:21.552Z,68.79
2023-03-21T00:19:24.153Z,66.01
2023-03-21T00:20:26.968Z,72.21
2023-03-21T00:21:48.816Z,74.95
2023-03-21T00:22:34.087Z,71.22
2023-03-21T00:23:36.648Z,77.24
2023-03-21T00:24:39.204Z,65.75
2023-03-21T00:25:41.714Z,64.55
2023-03-21T00:26:44.897Z,72.56
2023-03-21T00:28:52.246Z,70.45
2023-03-21T00:29:54.804Z,64.37
2023-03-21T00:30:57.377Z,67.45
2023-03-21T00:31:59.979Z,70.58
2023-03-21T00:33:11.997Z,63.75
2023-03-21T00:34:06.961Z,86.94
2023-03-21T00:35:45.304Z,72.68
2023-03-21T00:36:14.545Z,65.56
2023-03-21T00:37:17.388Z,66.01
2023-03-21T00:38:19.969Z,60.83
2023-03-21T00:39:22.518Z,64.25
2023-03-21T00:40:31.147Z,68.39
2023-03-21T00:41:45.107Z,68.08
2023-03-21T00:42:34.160Z,59.13
2023-03-21T00:43:36.714Z,61.49
2023-03-21T00:44:39.274Z,57.98
2023-03-21T00:45:41.857Z,52.36
2023-03-21T00:46:54.539Z,59.70
2023-03-21T00:47:48.908Z,61.37
2023-03-21T00:48:51.606Z,68.42
2023-03-21T00:49:54.065Z,70.23
2023-03-21T00:50:56.932Z,74.51
2023-03-21T00:52:08.712Z,68.20
2023-03-21T00:53:03.895Z,66.44
2023-03-21T00:54:06.473Z,77.09
2023-03-21T00:55:09.265Z,72.59
2023-03-21T00:56:12.189Z,65.54
2023-03-21T00:57:14.768Z,63.71
2023-03-21T00:58:17.355Z,66.51
2023-03-21T00:59:19.918Z,74.48
2023-03-21T01:00:22.488Z,63.38
2023-03-21T01:01:25.055Z,68.31
2023-03-21T01:02:27.703Z,71.11
2023-03-21T01:03:30.298Z,74.83
2023-03-21T01:04:32.868Z,62.98
2023-03-21T01:05:35.620Z,62.03
2023-03-21T01:06:38.917Z,73.18
2023-03-21T01:07:41.480Z,72.93
2023-03-21T01:08:52.274Z,66.26
2023-03-21T01:09:48.423Z,73.55
2023-03-21T01:10:51.135Z,78.37
2023-03-21T01:11:53.660Z,72.57
2023-03-21T01:12:56.130Z,72.43
2023-03-21T01:14:14.649Z,80.00
2023-03-21T01:15:03.097Z,87.22
2023-03-21T01:16:06.060Z,79.96
2023-03-21T01:17:08.637Z,93.48
2023-03-21T01:18:11.240Z,80.83
2023-03-21T01:19:23.991Z,91.88
2023-03-21T01:20:18.535Z,100.77
2023-03-21T01:21:21.104Z,104.20
2023-03-21T01:22:23.666Z,94.17
2023-03-21T01:23:26.500Z,89.48
2023-03-21T01:24:29.086Z,97.60
2023-03-21T01:25:31.639Z,92.57
2023-03-21T01:26:34.400Z,109.87
2023-03-21T01:27:36.977Z,109.10
2023-03-21T01:28:39.633Z,97.99
2023-03-21T01:29:42.272Z,94.89
2023-03-21T01:30:45.133Z,96.22
2023-03-21T01:31:47.701Z,97.77
2023-03-21T01:32:50.274Z,92.98
2023-03-21T01:33:52.813Z,95.99
2023-03-21T01:34:55.409Z,98.23
2023-03-21T01:36:11.739Z,95.51
2023-03-21T01:37:02.382Z,89.80
2023-03-21T01:38:05.143Z,91.60
2023-03-21T01:39:07.772Z,97.90
2023-03-21T01:40:11.086Z,91.09
2023-03-21T01:41:19.494Z,95.11
2023-03-21T01:42:18.229Z,99.36
2023-03-21T01:43:21.092Z,96.29
2023-03-21T01:44:23.664Z,105.03
2023-03-21T01:45:26.249Z,104.01
2023-03-21T01:46:32.283Z,112.98
2023-03-21T01:47:33.257Z,87.42
2023-03-21T01:48:36.041Z,91.30
2023-03-21T01:49:38.641Z,95.26
2023-03-21T01:50:41.672Z,82.24
2023-03-21T01:51:44.578Z,87.26
2023-03-21T01:52:47.164Z,89.41
2023-03-21T01:53:49.655Z,96.57
2023-03-21T01:54:52.224Z,94.22
2023-03-21T01:55:54.774Z,82.13
2023-03-21T01:56:57.476Z,89.49
2023-03-21T01:58:06.191Z,105.81
2023-03-21T01:59:04.788Z,76.56
2023-03-21T02:00:07.568Z,96.22
2023-03-21T02:01:10.230Z,95.60
2023-03-21T02:02:12.881Z,82.85
2023-03-21T02:03:26.231Z,83.02
2023-03-21T02:04:19.913Z,95.71
2023-03-21T02:05:22.327Z,93.21
2023-03-21T02:06:25.095Z,91.52
2023-03-21T02:07:27.794Z,94.47
2023-03-21T02:08:38.748Z,78.59
2023-03-21T02:09:34.791Z,79.43
2023-03-21T02:10:37.370Z,80.63
2023-03-21T02:11:40.063Z,80.54
2023-03-21T02:12:42.635Z,73.11
2023-03-21T02:13:45.769Z,79.59
2023-03-21T02:14:48.356Z,83.07
2023-03-21T02:15:50.944Z,86.15
2023-03-21T02:16:53.797Z,77.94
2023-03-21T02:17:56.650Z,84.21
2023-03-21T02:18:59.267Z,82.94
2023-03-21T02:20:01.855Z,86.27
2023-03-21T02:21:04.394Z,80.29
2023-03-21T02:22:06.969Z,94.16
2023-03-21T02:23:09.534Z,76.64
2023-03-21T02:24:12.137Z,90.60
2023-03-21T02:25:21.785Z,82.63
2023-03-21T02:26:19.303Z,90.48
2023-03-21T02:27:21.999Z,92.82
2023-03-21T02:28:24.533Z,80.33
2023-03-21T02:29:27.242Z,82.42
2023-03-21T02:30:33.668Z,83.27
2023-03-21T02:31:34.385Z,78.66
2023-03-21T02:32:38.280Z,79.00
2023-03-21T02:33:41.040Z,89.80
2023-03-21T02:34:43.672Z,107.07
2023-03-21T02:35:54.151Z,80.60
2023-03-21T02:36:50.857Z,87.25
2023-03-21T02:38:00.039Z,86.43
2023-03-21T02:38:57.836Z,80.63
2023-03-21T02:40:00.445Z,82.41
2023-03-21T02:41:05.380Z,86.38
2023-03-21T02:42:07.395Z,86.62
2023-03-21T02:43:20.805Z,90.26
2023-03-21T02:44:14.037Z,88.57
2023-03-21T02:45:16.655Z,96.51
2023-03-21T02:46:21.472Z,99.69
2023-03-21T02:47:24.420Z,101.47
2023-03-21T02:48:35.322Z,119.23
2023-03-21T02:49:31.473Z,98.34
2023-03-21T02:50:34.231Z,83.00
2023-03-21T02:51:36.764Z,82.87
2023-03-21T02:52:39.941Z,88.94
2023-03-21T02:53:43.473Z,87.64
2023-03-21T02:54:48.557Z,87.08
2023-03-21T02:55:50.602Z,96.19
2023-03-21T02:56:53.175Z,88.83
2023-03-21T02:57:56.580Z,99.65
2023-03-21T02:58:59.513Z,103.67
2023-03-21T03:00:13.989Z,109.76
2023-03-21T03:01:06.916Z,110.15
2023-03-21T03:02:09.443Z,107.61
2023-03-21T03:03:18.187Z,110.71
2023-03-21T03:04:16.413Z,108.29
2023-03-21T03:05:22.269Z,114.01
2023-03-21T03:06:23.426Z,109.66
2023-03-21T03:07:25.974Z,118.43
2023-03-21T03:08:38.379Z,115.16
2023-03-21T03:09:33.209Z,122.41
2023-03-21T03:10:36.143Z,131.02
2023-03-21T03:11:38.939Z,121.69
2023-03-21T03:12:41.507Z,117.36
2023-03-21T03:13:44.158Z,125.49
2023-03-21T03:15:02.158Z,132.49
2023-03-21T03:15:51.121Z,123.65
2023-03-21T03:16:53.776Z,89.53
2023-03-21T03:17:56.360Z,93.66
2023-03-21T03:18:58.935Z,109.67
2023-03-21T03:20:07.107Z,117.51
2023-03-21T03:21:05.881Z,141.17
2023-03-21T03:22:08.664Z,100.59
2023-03-21T03:23:11.244Z,85.12
2023-03-21T03:24:14.004Z,75.89
2023-03-21T03:25:25.040Z,91.88
2023-03-21T03:26:21.146Z,89.32
2023-03-21T03:27:24.051Z,114.64
2023-03-21T03:28:26.679Z,104.41
2023-03-21T03:29:29.215Z,94.07
2023-03-21T03:30:41.249Z,87.49
2023-03-21T03:31:36.224Z,89.86
2023-03-21T03:32:38.793Z,87.96
2023-03-21T03:33:41.393Z,85.00
2023-03-21T03:34:44.065Z,90.31
2023-03-21T03:35:55.861Z,89.34
2023-03-21T03:36:51.019Z,84.01
2023-03-21T03:37:53.606Z,80.98
2023-03-21T03:38:56.215Z,83.27
2023-03-21T03:39:58.783Z,88.03
2023-03-21T03:41:01.637Z,89.27
2023-03-21T03:42:15.481Z,86.96
2023-03-21T03:43:08.956Z,75.12
2023-03-21T03:44:11.566Z,91.59
2023-03-21T03:45:14.137Z,84.32
2023-03-21T03:46:16.906Z,78.11
2023-03-21T03:47:31.700Z,94.14
2023-03-21T03:48:24.318Z,78.25
2023-03-21T03:49:27.064Z,78.95
2023-03-21T03:50:29.937Z,73.17
2023-03-21T03:51:32.505Z,74.99
2023-03-21T03:52:35.807Z,73.06
2023-03-21T03:53:39.535Z,76.59
2023-03-21T03:54:42.089Z,81.39
2023-03-21T03:55:44.686Z,80.96
2023-03-21T03:56:47.439Z,82.72
2023-03-21T03:57:50.009Z,73.15
2023-03-21T03:58:52.561Z,90.59
2023-03-21T03:59:56.299Z,77.09
2023-03-21T04:00:59.196Z,69.06
2023-03-21T04:02:01.868Z,73.70
2023-03-21T04:03:04.832Z,72.29
2023-03-21T04:04:13.308Z,77.88
2023-03-21T04:05:12.165Z,78.89
2023-03-21T04:06:14.832Z,80.85
2023-03-21T04:07:17.400Z,72.74
2023-03-21T04:08:20.075Z,68.59
2023-03-21T04:09:34.052Z,73.70
2023-03-21T04:10:27.113Z,68.49
2023-03-21T04:11:29.615Z,79.54
2023-03-21T04:12:32.242Z,63.11
2023-03-21T04:13:34.718Z,64.46
2023-03-21T04:14:44.492Z,67.03
2023-03-21T04:15:41.562Z,69.07
2023-03-21T04:16:44.320Z,73.74
2023-03-21T04:17:46.904Z,89.28
2023-03-21T04:18:49.488Z,102.05
2023-03-21T04:20:00.047Z,112.54
2023-03-21T04:20:56.530Z,116.54
2023-03-21T04:21:59.096Z,93.94
2023-03-21T04:23:01.648Z,90.17
2023-03-21T04:24:04.213Z,91.78
2023-03-21T04:25:06.814Z,87.78
2023-03-21T04:26:09.924Z,87.82
2023-03-21T04:27:12.583Z,91.26
2023-03-21T04:28:15.147Z,97.65
2023-03-21T04:29:17.754Z,84.12
2023-03-21T04:30:20.630Z,93.30
2023-03-21T04:31:26.196Z,85.45
2023-03-21T04:32:27.625Z,95.62
2023-03-21T04:33:30.207Z,99.32
2023-03-21T04:34:32.740Z,79.81
2023-03-21T04:35:37.472Z,88.95
2023-03-21T04:36:39.670Z,81.84
2023-03-21T04:37:42.283Z,76.89
2023-03-21T04:38:44.907Z,85.10
2023-03-21T04:39:47.472Z,85.67
2023-03-21T04:40:50.030Z,72.33
2023-03-21T04:41:52.776Z,75.56
2023-03-21T04:42:55.377Z,76.21
2023-03-21T04:43:57.929Z,71.41
2023-03-21T04:45:00.686Z,75.63
2023-03-21T04:46:03.295Z,73.23
2023-03-21T04:47:06.095Z,77.39
2023-03-21T04:48:08.825Z,71.78
2023-03-21T04:49:11.417Z,77.99
2023-03-21T04:50:14.213Z,65.89
2023-03-21T04:51:16.811Z,62.73
2023-03-21T04:52:19.357Z,60.29
2023-03-21T04:53:21.816Z,75.78
2023-03-21T04:54:24.476Z,69.99
2023-03-21T04:55:27.083Z,60.67
2023-03-21T04:56:29.792Z,75.81
2023-03-21T04:57:32.353Z,69.92
2023-03-21T04:58:35.014Z,78.96
2023-03-21T04:59:37.585Z,64.80
2023-03-21T05:00:40.236Z,67.17
2023-03-21T05:01:43.018Z,66.47
2023-03-21T05:02:45.580Z,58.21
2023-03-21T05:03:48.197Z,68.23
2023-03-21T05:04:50.735Z,55.63
2023-03-21T05:05:53.288Z,61.37
2023-03-21T05:06:56.159Z,57.98
2023-03-21T05:07:58.730Z,55.29
2023-03-21T05:09:01.569Z,60.74
2023-03-21T05:10:04.287Z,65.91
2023-03-21T05:11:06.841Z,54.73
2023-03-21T05:12:09.513Z,53.49
2023-03-21T05:13:12.098Z,57.85
2023-03-21T05:14:14.778Z,56.95
2023-03-21T05:15:17.546Z,61.19
2023-03-21T05:16:20.113Z,47.35
2023-03-21T05:17:22.681Z,51.58
2023-03-21T05:18:25.258Z,57.95
2023-03-21T05:19:27.801Z,52.99
2023-03-21T05:20:30.648Z,51.79
2023-03-21T05:21:33.010Z,59.67
2023-03-21T05:22:35.572Z,49.71
2023-03-21T05:23:38.157Z,50.00
2023-03-21T05:24:40.716Z,63.28
2023-03-21T05:25:43.266Z,52.15
2023-03-21T05:26:45.920Z,43.36
2023-03-21T05:27:48.480Z,38.71
2023-03-21T05:28:51.036Z,37.96
2023-03-21T05:29:53.495Z,44.76
2023-03-21T05:30:56.288Z,41.33
2023-03-21T05:31:58.837Z,31.15
2023-03-21T05:33:01.398Z,36.17
2023-03-21T05:34:04.022Z,47.92
2023-03-21T05:35:06.650Z,40.55
2023-03-21T05:36:10.413Z,63.51
2023-03-21T05:37:13.102Z,53.78
2023-03-21T05:38:15.676Z,57.98
2023-03-21T05:39:18.261Z,53.73
2023-03-21T05:40:20.936Z,58.38
2023-03-21T05:41:23.508Z,59.59
2023-03-21T05:42:26.071Z,46.55
2023-03-21T05:43:28.654Z,53.05
2023-03-21T05:44:31.201Z,43.01
2023-03-21T05:45:33.769Z,43.31
2023-03-21T05:46:36.988Z,41.89
2023-03-21T05:47:39.659Z,47.19
2023-03-21T05:48:42.154Z,47.13
2023-03-21T05:49:44.741Z,48.78
2023-03-21T05:50:47.660Z,51.79
2023-03-21T05:51:50.363Z,45.31
2023-03-21T05:52:52.947Z,49.98
2023-03-21T05:53:55.557Z,45.21
2023-03-21T05:54:58.214Z,46.51
2023-03-21T05:56:00.819Z,45.87
2023-03-21T05:57:03.332Z,56.08
2023-03-21T05:58:05.884Z,50.77
2023-03-21T05:59:08.450Z,45.75
2023-03-21T06:00:11.687Z,55.86
2023-03-21T06:01:14.253Z,53.95
2023-03-21T06:02:16.910Z,45.17
2023-03-21T06:03:19.688Z,52.39
2023-03-21T06:04:22.247Z,49.16
2023-03-21T06:05:24.858Z,43.67
2023-03-21T06:06:27.629Z,35.90
2023-03-21T06:07:30.207Z,37.88
2023-03-21T06:08:32.770Z,36.64
2023-03-21T06:09:35.348Z,31.74
2023-03-21T06:10:38.009Z,29.13
2023-03-21T06:11:40.566Z,31.10
2023-03-21T06:12:43.141Z,27.67
2023-03-21T06:13:45.711Z,31.11
2023-03-21T06:14:48.187Z,29.47
2023-03-21T06:15:50.767Z,24.93
2023-03-21T06:16:53.407Z,28.94
2023-03-21T06:17:55.980Z,28.47
2023-03-21T06:18:58.558Z,33.88
2023-03-21T06:20:01.022Z,31.28
2023-03-21T06:21:03.585Z,27.88
2023-03-21T06:22:06.162Z,34.28
2023-03-21T06:23:08.729Z,32.49
2023-03-21T06:24:11.296Z,39.06
2023-03-21T06:25:13.850Z,26.57
2023-03-21T06:26:16.509Z,27.74
2023-03-21T06:27:19.109Z,30.52
2023-03-21T06:28:21.895Z,28.95
2023-03-21T06:29:24.475Z,27.15
2023-03-21T06:30:27.234Z,29.53
2023-03-21T06:31:29.868Z,29.45
2023-03-21T06:32:32.603Z,32.32
2023-03-21T06:33:35.236Z,35.93
2023-03-21T06:34:39.438Z,33.72
2023-03-21T06:35:42.155Z,35.51
2023-03-21T06:36:45.097Z,30.11
2023-03-21T06:37:47.660Z,28.29
2023-03-21T06:38:50.304Z,32.58
2023-03-21T06:39:55.104Z,25.85
2023-03-21T06:40:57.334Z,32.35
2023-03-21T06:41:59.879Z,36.07
2023-03-21T06:43:02.441Z,27.98
2023-03-21T06:44:05.046Z,30.86
2023-03-21T06:45:07.613Z,27.75
2023-03-21T06:46:10.372Z,35.56
2023-03-21T06:47:12.945Z,36.89
2023-03-21T06:48:15.550Z,32.37
2023-03-21T06:49:18.424Z,30.67
2023-03-21T06:50:21.334Z,29.58
2023-03-21T06:51:24.539Z,28.46
2023-03-21T06:52:27.137Z,36.29
2023-03-21T06:53:29.744Z,28.97
2023-03-21T06:54:32.385Z,39.51
2023-03-21T06:55:35.005Z,29.36
2023-03-21T06:56:37.652Z,31.03
2023-03-21T06:57:40.214Z,32.15
2023-03-21T06:58:42.796Z,28.02
2023-03-21T06:59:45.387Z,31.87
2023-03-21T07:00:48.075Z,30.41
2023-03-21T07:01:50.731Z,37.86
2023-03-21T07:02:53.319Z,28.56
2023-03-21T07:03:55.873Z,34.61
2023-03-21T07:04:58.494Z,31.83
2023-03-21T07:06:01.056Z,40.90
2023-03-21T07:07:04.057Z,29.25
2023-03-21T07:08:06.609Z,28.98
2023-03-21T07:09:09.379Z,33.31
2023-03-21T07:10:12.454Z,27.24
2023-03-21T07:11:15.043Z,29.75
2023-03-21T07:12:17.580Z,29.08
2023-03-21T07:13:20.133Z,30.57
2023-03-21T07:14:22.704Z,26.68
2023-03-21T07:15:25.614Z,35.87
2023-03-21T07:16:28.431Z,29.77
2023-03-21T07:17:30.983Z,31.15
2023-03-21T07:18:33.557Z,28.84
2023-03-21T07:19:36.120Z,25.23
2023-03-21T07:20:38.688Z,28.09
2023-03-21T07:21:41.253Z,30.83
2023-03-21T07:22:43.852Z,41.69
2023-03-21T07:23:46.417Z,40.78
2023-03-21T07:25:04.364Z,34.21
2023-03-21T07:25:54.033Z,32.98
2023-03-21T07:26:57.214Z,29.65
2023-03-21T07:28:00.095Z,37.69
2023-03-21T07:29:02.694Z,26.85
2023-03-21T07:30:05.470Z,27.96
2023-03-21T07:31:08.075Z,33.07
2023-03-21T07:32:10.666Z,33.56
2023-03-21T07:33:13.218Z,31.96
2023-03-21T07:34:15.810Z,33.19
2023-03-21T07:35:19.450Z,39.38
2023-03-21T07:36:22.482Z,30.56
2023-03-21T07:37:25.546Z,33.78
2023-03-21T07:38:28.092Z,31.45
2023-03-21T07:39:30.646Z,30.34
2023-03-21T07:40:33.428Z,37.56
2023-03-21T07:41:36.008Z,41.55
2023-03-21T07:42:38.860Z,41.63
2023-03-21T07:43:41.292Z,33.34
2023-03-21T07:44:43.848Z,36.79
2023-03-21T07:45:46.446Z,30.17
2023-03-21T07:46:49.556Z,45.43
2023-03-21T07:47:52.123Z,33.10
2023-03-21T07:48:54.678Z,32.86
2023-03-21T07:49:57.241Z,40.97
2023-03-21T07:50:59.796Z,49.24
2023-03-21T07:52:04.651Z,37.36
2023-03-21T07:53:06.845Z,34.89
2023-03-21T07:54:09.358Z,29.21
2023-03-21T07:55:11.970Z,35.93
2023-03-21T07:56:14.722Z,29.96
2023-03-21T07:57:17.307Z,32.89
2023-03-21T07:58:19.884Z,48.49
2023-03-21T07:59:22.416Z,40.65
2023-03-21T08:00:25.121Z,35.67
2023-03-21T08:01:27.684Z,35.33
2023-03-21T08:02:30.620Z,35.83
2023-03-21T08:03:33.257Z,38.52
2023-03-21T08:04:36.028Z,34.34
2023-03-21T08:05:39.065Z,31.09
2023-03-21T08:06:42.279Z,36.71
2023-03-21T08:07:44.897Z,35.21
2023-03-21T08:08:47.463Z,36.35
2023-03-21T08:09:50.065Z,35.07
2023-03-21T08:10:53.001Z,32.85
2023-03-21T08:11:55.566Z,36.29
2023-03-21T08:12:58.198Z,36.73
2023-03-21T08:14:00.812Z,33.59
2023-03-21T08:15:03.523Z,35.71
2023-03-21T08:16:06.316Z,32.40
2023-03-21T08:17:08.912Z,43.25
2023-03-21T08:18:11.574Z,32.76
2023-03-21T08:19:14.163Z,34.99
2023-03-21T08:20:16.994Z,38.61
2023-03-21T08:21:19.626Z,41.98
2023-03-21T08:22:22.184Z,33.31
2023-03-21T08:23:24.761Z,38.81
2023-03-21T08:24:27.302Z,38.33
2023-03-21T08:25:29.896Z,35.43
2023-03-21T08:26:32.751Z,33.64
2023-03-21T08:27:35.330Z,29.49
2023-03-21T08:28:37.835Z,32.36
2023-03-21T08:29:40.409Z,32.28
2023-03-21T08:30:43.373Z,37.61
2023-03-21T08:31:45.916Z,37.95
2023-03-21T08:32:48.484Z,41.45
2023-03-21T08:33:51.043Z,33.64
2023-03-21T08:34:53.609Z,37.03
2023-03-21T08:35:56.193Z,37.61
2023-03-21T08:36:59.114Z,39.69
2023-03-21T08:38:01.814Z,42.09
2023-03-21T08:39:04.434Z,46.81
2023-03-21T08:40:07.183Z,36.63
2023-03-21T08:41:09.738Z,29.48
2023-03-21T08:42:12.314Z,42.41
2023-03-21T08:43:15.083Z,40.80
2023-03-21T08:44:17.766Z,32.16
2023-03-21T08:45:21.426Z,32.68
2023-03-21T08:46:24.057Z,38.71
2023-03-21T08:47:26.680Z,29.21
2023-03-21T08:48:29.237Z,28.45
2023-03-21T08:49:31.838Z,31.47
2023-03-21T08:50:34.699Z,46.57
2023-03-21T08:51:37.258Z,37.57
2023-03-21T08:52:39.869Z,35.41
2023-03-21T08:53:42.468Z,39.27
2023-03-21T08:54:45.435Z,30.53
2023-03-21T08:55:47.989Z,33.96
2023-03-21T08:56:50.734Z,39.25
2023-03-21T08:57:53.312Z,38.35
2023-03-21T08:58:55.869Z,27.86
2023-03-21T08:59:58.464Z,30.53
2023-03-21T09:01:01.043Z,29.65
2023-03-21T09:02:03.647Z,27.62
2023-03-21T09:03:06.496Z,35.21
2023-03-21T09:04:09.126Z,31.82
2023-03-21T09:05:13.265Z,30.44
2023-03-21T09:06:16.033Z,41.01
2023-03-21T09:07:18.852Z,31.82
2023-03-21T09:08:21.438Z,27.80
2023-03-21T09:09:24.200Z,34.94
2023-03-21T09:10:27.408Z,33.61
2023-03-21T09:11:30.333Z,29.69
2023-03-21T09:12:32.948Z,36.72
2023-03-21T09:13:35.353Z,34.85
2023-03-21T09:14:37.889Z,33.13
2023-03-21T09:15:40.792Z,22.51
2023-03-21T09:16:43.957Z,27.47
2023-03-21T09:17:46.545Z,32.05
2023-03-21T09:18:49.165Z,30.62
2023-03-21T09:19:52.001Z,25.33
2023-03-21T09:20:54.671Z,27.76
2023-03-21T09:21:57.226Z,27.09
2023-03-21T09:22:59.866Z,26.94
2023-03-21T09:24:02.577Z,28.97
2023-03-21T09:25:05.149Z,22.73
2023-03-21T09:26:09.147Z,26.20
2023-03-21T09:27:11.745Z,24.63
2023-03-21T09:28:14.328Z,22.05
2023-03-21T09:29:16.910Z,28.61
2023-03-21T09:30:19.482Z,30.83
2023-03-21T09:31:22.154Z,31.51
2023-03-21T09:32:24.752Z,22.75
2023-03-21T09:33:27.308Z,33.93
2023-03-21T09:34:29.916Z,28.08
2023-03-21T09:35:32.449Z,25.62
2023-03-21T09:36:35.235Z,26.71
2023-03-21T09:37:37.808Z,28.44
2023-03-21T09:38:40.333Z,30.94
2023-03-21T09:39:42.954Z,33.33
2023-03-21T09:40:45.589Z,29.01
2023-03-21T09:41:48.147Z,33.62
2023-03-21T09:42:50.704Z,30.39
2023-03-21T09:43:53.287Z,34.81
2023-03-21T09:44:55.847Z,33.21
2023-03-21T09:45:58.434Z,31.44
2023-03-21T09:47:01.367Z,34.58
2023-03-21T09:48:04.070Z,27.67
2023-03-21T09:49:06.591Z,34.19
2023-03-21T09:50:14.763Z,32.30
2023-03-21T09:51:14.023Z,38.51
2023-03-21T09:52:16.607Z,43.06
2023-03-21T09:53:19.209Z,36.59
2023-03-21T09:54:21.852Z,35.59
2023-03-21T09:55:24.471Z,29.41
2023-03-21T09:56:27.191Z,25.26
2023-03-21T09:57:29.757Z,34.55
2023-03-21T09:58:32.366Z,46.09
2023-03-21T09:59:34.915Z,43.43
2023-03-21T10:00:37.684Z,30.96
2023-03-21T10:01:40.554Z,40.00
2023-03-21T10:02:43.130Z,28.73
2023-03-21T10:03:45.724Z,26.89
2023-03-21T10:04:48.328Z,40.61
2023-03-21T10:05:50.931Z,42.04
2023-03-21T10:06:53.899Z,32.51
2023-03-21T10:07:56.460Z,32.29
2023-03-21T10:08:59.030Z,37.35
2023-03-21T10:10:01.723Z,38.11
2023-03-21T10:11:04.310Z,31.91
2023-03-21T10:12:06.939Z,39.13
2023-03-21T10:13:09.524Z,33.36
2023-03-21T10:14:12.082Z,39.53
2023-03-21T10:15:14.694Z,32.77
2023-03-21T10:16:17.724Z,27.99
2023-03-21T10:17:20.685Z,36.69
2023-03-21T10:18:23.222Z,26.33
2023-03-21T10:19:25.799Z,32.29
2023-03-21T10:20:28.574Z,36.06
2023-03-21T10:21:58.649Z,28.62
2023-03-21T10:22:35.721Z,30.25
2023-03-21T10:23:38.345Z,24.33
2023-03-21T10:24:40.893Z,30.91
2023-03-21T10:25:43.484Z,29.37
2023-03-21T10:26:46.260Z,32.48
2023-03-21T10:27:48.816Z,39.76
2023-03-21T10:28:53.336Z,39.64
2023-03-21T10:29:55.777Z,35.25
2023-03-21T10:30:58.662Z,36.29
2023-03-21T10:32:01.978Z,36.24
2023-03-21T10:33:04.629Z,57.66
2023-03-21T10:34:07.203Z,32.22
2023-03-21T10:35:10.681Z,39.01
2023-03-21T10:36:14.592Z,50.65
2023-03-21T10:37:17.451Z,35.92
2023-03-21T10:38:20.019Z,36.70
2023-03-21T10:39:22.642Z,37.31
2023-03-21T10:40:25.416Z,31.49
2023-03-21T10:41:27.979Z,39.35
2023-03-21T10:42:30.530Z,45.28
2023-03-21T10:43:33.230Z,39.69
2023-03-21T10:44:36.155Z,36.58
2023-03-21T10:45:39.003Z,31.78
2023-03-21T10:46:42.377Z,35.67
2023-03-21T10:47:45.269Z,29.06
2023-03-21T10:48:48.060Z,28.73
2023-03-21T10:50:06.753Z,27.20
2023-03-21T10:50:55.298Z,33.91
2023-03-21T10:51:58.238Z,33.04
2023-03-21T10:53:00.825Z,28.75
2023-03-21T10:54:03.513Z,30.54
2023-03-21T10:55:06.172Z,30.24
2023-03-21T10:56:09.181Z,26.01
2023-03-21T10:57:11.877Z,18.77
2023-03-21T10:58:14.391Z,21.03
2023-03-21T10:59:18.367Z,25.66
2023-03-21T11:00:21.511Z,28.69
2023-03-21T11:01:24.505Z,23.66
2023-03-21T11:02:27.123Z,27.99
2023-03-21T11:03:29.690Z,22.63
2023-03-21T11:04:32.240Z,27.35
2023-03-21T11:05:34.790Z,30.80
2023-03-21T11:06:37.647Z,32.49
2023-03-21T11:07:40.189Z,24.59
2023-03-21T11:08:42.891Z,22.52
2023-03-21T11:09:45.482Z,26.02
2023-03-21T11:10:48.095Z,23.33
2023-03-21T11:11:50.624Z,26.99
2023-03-21T11:12:53.172Z,21.07
2023-03-21T11:13:56.048Z,26.27
2023-03-21T11:14:58.719Z,30.62
2023-03-21T11:16:01.315Z,31.71
2023-03-21T11:17:03.859Z,23.39
2023-03-21T11:18:06.430Z,27.60
2023-03-21T11:19:09.014Z,31.22
2023-03-21T11:20:13.240Z,21.71
2023-03-21T11:21:15.710Z,24.35
2023-03-21T11:22:18.246Z,25.75
2023-03-21T11:23:21.105Z,31.61
2023-03-21T11:24:23.965Z,25.98
2023-03-21T11:25:26.520Z,26.53
2023-03-21T11:26:29.425Z,22.96
2023-03-21T11:27:31.973Z,26.08
2023-03-21T11:28:34.522Z,24.92
2023-03-21T11:29:36.978Z,24.19
2023-03-21T11:30:39.661Z,25.47
2023-03-21T11:31:42.404Z,25.97
2023-03-21T11:32:45.014Z,29.63
2023-03-21T11:33:47.543Z,30.22
2023-03-21T11:34:50.155Z,19.05
2023-03-21T11:35:52.662Z,21.34
2023-03-21T11:36:55.746Z,21.87
2023-03-21T11:37:58.313Z,28.35
2023-03-21T11:39:00.913Z,24.12
2023-03-21T11:40:03.703Z,26.32
2023-03-21T11:41:06.289Z,20.62
2023-03-21T11:42:08.900Z,27.63
2023-03-21T11:43:11.472Z,20.55
2023-03-21T11:44:14.069Z,26.44
2023-03-21T11:45:16.695Z,21.79
2023-03-21T11:46:19.768Z,22.93
2023-03-21T11:47:22.339Z,24.24
2023-03-21T11:48:24.940Z,18.47
2023-03-21T11:49:27.778Z,23.87
2023-03-21T11:50:30.336Z,34.51
2023-03-21T11:51:32.910Z,21.14
2023-03-21T11:52:35.456Z,22.07
2023-03-21T11:53:38.029Z,22.25
2023-03-21T11:54:40.508Z,16.85
2023-03-21T11:55:42.990Z,28.67
2023-03-21T11:56:45.750Z,22.79
2023-03-21T11:57:48.343Z,29.12
2023-03-21T11:58:50.926Z,20.51
2023-03-21T11:59:53.488Z,26.19
2023-03-21T12:00:56.185Z,19.81
2023-03-21T12:01:58.752Z,24.32
2023-03-21T12:03:01.380Z,22.57
2023-03-21T12:04:04.248Z,21.41
2023-03-21T12:05:07.140Z,19.78
2023-03-21T12:06:10.723Z,25.74
2023-03-21T12:07:13.260Z,21.98
2023-03-21T12:08:15.825Z,23.22
2023-03-21T12:09:18.701Z,21.46
2023-03-21T12:10:22.074Z,33.41
2023-03-21T12:11:24.921Z,20.70
2023-03-21T12:12:38.319Z,20.76
2023-03-21T12:13:31.969Z,31.47
2023-03-21T12:14:34.480Z,25.41
2023-03-21T12:15:37.226Z,25.81
2023-03-21T12:16:40.539Z,22.59
2023-03-21T12:17:43.128Z,23.19
2023-03-21T12:18:45.698Z,25.71
2023-03-21T12:19:48.200Z,24.33
2023-03-21T12:20:50.823Z,25.48
2023-03-21T12:21:54.811Z,20.17
2023-03-21T12:22:57.675Z,22.79
2023-03-21T12:24:00.224Z,26.09
2023-03-21T12:25:02.658Z,21.55
2023-03-21T12:26:05.396Z,26.09
2023-03-21T12:27:07.870Z,21.97
2023-03-21T12:28:10.507Z,21.63
2023-03-21T12:29:13.016Z,19.11
2023-03-21T12:30:15.830Z,19.37
2023-03-21T12:31:18.354Z,22.95
2023-03-21T12:32:21.150Z,17.97
2023-03-21T12:33:23.594Z,27.53
2023-03-21T12:34:26.183Z,22.36
2023-03-21T12:35:28.719Z,20.73
2023-03-21T12:36:31.504Z,22.23
2023-03-21T12:37:33.980Z,26.97
2023-03-21T12:38:36.565Z,25.59
2023-03-21T12:39:39.051Z,20.95
2023-03-21T12:40:41.589Z,24.49
2023-03-21T12:41:44.121Z,28.61
2023-03-21T12:42:46.675Z,29.26
2023-03-21T12:43:49.159Z,23.03
2023-03-21T12:44:51.671Z,29.57
2023-03-21T12:45:54.638Z,23.97
2023-03-21T12:46:57.336Z,18.21
2023-03-21T12:47:59.871Z,21.49
2023-03-21T12:49:02.711Z,22.38
2023-03-21T12:50:05.618Z,24.44
2023-03-21T12:51:08.197Z,19.99
2023-03-21T12:52:10.733Z,26.77
2023-03-21T12:53:13.272Z,15.21
2023-03-21T12:54:15.761Z,19.39
2023-03-21T12:55:18.269Z,25.41
2023-03-21T12:56:21.028Z,42.52
2023-03-21T12:57:23.553Z,19.02
2023-03-21T12:58:26.017Z,23.99
2023-03-21T12:59:28.563Z,23.59
2023-03-21T13:00:31.550Z,19.37
2023-03-21T13:01:34.478Z,22.06
2023-03-21T13:02:37.061Z,29.75
2023-03-21T13:03:40.691Z,19.99
2023-03-21T13:04:43.561Z,22.49
2023-03-21T13:05:46.109Z,21.27
2023-03-21T13:06:48.659Z,21.85
2023-03-21T13:07:51.622Z,18.62
2023-03-21T13:08:54.157Z,27.37
2023-03-21T13:09:56.730Z,21.40
2023-03-21T13:11:01.088Z,24.13
2023-03-21T13:12:03.697Z,25.68
2023-03-21T13:13:06.416Z,22.03
2023-03-21T13:14:08.907Z,19.01
2023-03-21T13:15:21.719Z,22.43
2023-03-21T13:16:16.101Z,19.80
2023-03-21T13:17:18.735Z,21.41
2023-03-21T13:18:21.202Z,19.63
2023-03-21T13:19:23.771Z,28.65
2023-03-21T13:20:26.386Z,23.36
2023-03-21T13:21:28.897Z,30.22
2023-03-21T13:22:31.769Z,30.61
2023-03-21T13:23:34.590Z,27.53
2023-03-21T13:24:37.123Z,24.37
2023-03-21T13:25:39.551Z,19.44
2023-03-21T13:26:42.403Z,36.24
2023-03-21T13:27:44.834Z,30.93
2023-03-21T13:28:47.313Z,21.52